sensor_id;sensor_type;location;lat;lon;timestamp;P1;durP1;ratioP1;P2;durP2;ratioP2
17372;SDS011;8803;48.116;11.590;2023-03-03T00:01:09;32.07;;;21.20;;
17372;SDS011;8803;48.116;11.590;2023-03-03T00:03:23;31.53;;;21.13;;
17372;SDS011;8803;48.116;11.590;2023-03-03T00:05:27;32.93;;;21.60;;
17372;SDS011;8803;48.116;11.590;2023-03-03T00:07:44;32.27;;;22.00;;
17372;SDS011;8803;48.116;11.590;2023-03-03T00:09:49;32.93;;;21.10;;
17372;SDS011;8803;48.116;11.590;2023-03-03T00:11:54;30.90;;;21.40;;
17372;SDS011;8803;48.116;11.590;2023-03-03T00:14:00;33.73;;;22.37;;
17372;SDS011;8803;48.116;11.590;2023-03-03T00:16:14;33.20;;;22.37;;
17372;SDS011;8803;48.116;11.590;2023-03-03T00:18:29;32.53;;;21.47;;
17372;SDS011;8803;48.116;11.590;2023-03-03T00:20:37;32.17;;;21.67;;
17372;SDS011;8803;48.116;11.590;2023-03-03T00:22:41;34.50;;;22.23;;
17372;SDS011;8803;48.116;11.590;2023-03-03T00:24:45;31.37;;;22.17;;
17372;SDS011;8803;48.116;11.590;2023-03-03T00:27:00;31.37;;;21.33;;
17372;SDS011;8803;48.116;11.590;2023-03-03T00:29:18;33.43;;;21.00;;
17372;SDS011;8803;48.116;11.590;2023-03-03T00:31:32;31.70;;;21.13;;
17372;SDS011;8803;48.116;11.590;2023-03-03T00:33:40;32.73;;;21.13;;
17372;SDS011;8803;48.116;11.590;2023-03-03T00:35:52;31.87;;;21.03;;
17372;SDS011;8803;48.116;11.590;2023-03-03T00:37:57;30.37;;;20.57;;
17372;SDS011;8803;48.116;11.590;2023-03-03T00:40:21;32.40;;;20.30;;
17372;SDS011;8803;48.116;11.590;2023-03-03T00:42:26;34.57;;;22.47;;
17372;SDS011;8803;48.116;11.590;2023-03-03T00:44:33;35.43;;;22.53;;
17372;SDS011;8803;48.116;11.590;2023-03-03T00:46:52;32.97;;;21.27;;
17372;SDS011;8803;48.116;11.590;2023-03-03T00:48:57;30.90;;;20.80;;
17372;SDS011;8803;48.116;11.590;2023-03-03T00:51:05;33.13;;;20.90;;
17372;SDS011;8803;48.116;11.590;2023-03-03T00:53:18;31.87;;;20.97;;
17372;SDS011;8803;48.116;11.590;2023-03-03T00:55:23;32.67;;;22.33;;
17372;SDS011;8803;48.116;11.590;2023-03-03T00:57:36;30.73;;;20.73;;
17372;SDS011;8803;48.116;11.590;2023-03-03T00:59:40;34.20;;;22.10;;
17372;SDS011;8803;48.116;11.590;2023-03-03T01:01:44;31.00;;;20.57;;
17372;SDS011;8803;48.116;11.590;2023-03-03T01:03:48;33.03;;;21.33;;
17372;SDS011;8803;48.116;11.590;2023-03-03T01:06:01;30.63;;;21.63;;
17372;SDS011;8803;48.116;11.590;2023-03-03T01:08:05;29.53;;;21.47;;
17372;SDS011;8803;48.116;11.590;2023-03-03T01:12:23;31.13;;;21.17;;
17372;SDS011;8803;48.116;11.590;2023-03-03T01:14:27;28.00;;;20.10;;
17372;SDS011;8803;48.116;11.590;2023-03-03T01:16:40;31.43;;;20.40;;
17372;SDS011;8803;48.116;11.590;2023-03-03T01:18:44;30.60;;;20.37;;
17372;SDS011;8803;48.116;11.590;2023-03-03T01:20:48;31.57;;;21.23;;
17372;SDS011;8803;48.116;11.590;2023-03-03T01:22:52;30.77;;;21.40;;
17372;SDS011;8803;48.116;11.590;2023-03-03T01:25:05;29.80;;;19.03;;
17372;SDS011;8803;48.116;11.590;2023-03-03T01:27:10;31.87;;;20.77;;
17372;SDS011;8803;48.116;11.590;2023-03-03T01:29:14;31.27;;;20.37;;
17372;SDS011;8803;48.116;11.590;2023-03-03T01:31:27;31.07;;;20.87;;
17372;SDS011;8803;48.116;11.590;2023-03-03T01:33:31;31.73;;;20.80;;
17372;SDS011;8803;48.116;11.590;2023-03-03T01:35:48;30.40;;;19.87;;
17372;SDS011;8803;48.116;11.590;2023-03-03T01:37:52;31.60;;;21.10;;
17372;SDS011;8803;48.116;11.590;2023-03-03T01:39:56;29.83;;;20.60;;
17372;SDS011;8803;48.116;11.590;2023-03-03T01:42:00;30.60;;;19.87;;
17372;SDS011;8803;48.116;11.590;2023-03-03T01:44:05;26.90;;;19.37;;
17372;SDS011;8803;48.116;11.590;2023-03-03T01:46:24;32.67;;;21.10;;
17372;SDS011;8803;48.116;11.590;2023-03-03T01:48:42;32.30;;;20.40;;
17372;SDS011;8803;48.116;11.590;2023-03-03T01:50:48;27.50;;;20.13;;
17372;SDS011;8803;48.116;11.590;2023-03-03T01:53:05;32.73;;;20.27;;
17372;SDS011;8803;48.116;11.590;2023-03-03T01:55:21;30.43;;;21.27;;
17372;SDS011;8803;48.116;11.590;2023-03-03T01:57:28;29.50;;;20.30;;
17372;SDS011;8803;48.116;11.590;2023-03-03T01:59:42;29.53;;;19.77;;
17372;SDS011;8803;48.116;11.590;2023-03-03T02:01:48;31.47;;;21.23;;
17372;SDS011;8803;48.116;11.590;2023-03-03T02:04:03;33.43;;;22.03;;
17372;SDS011;8803;48.116;11.590;2023-03-03T02:06:08;31.53;;;20.50;;
17372;SDS011;8803;48.116;11.590;2023-03-03T02:08:22;35.23;;;21.83;;
17372;SDS011;8803;48.116;11.590;2023-03-03T02:10:29;32.10;;;20.63;;
17372;SDS011;8803;48.116;11.590;2023-03-03T02:12:33;32.30;;;21.87;;
17372;SDS011;8803;48.116;11.590;2023-03-03T02:14:39;29.97;;;21.10;;
17372;SDS011;8803;48.116;11.590;2023-03-03T02:16:52;31.73;;;21.13;;
17372;SDS011;8803;48.116;11.590;2023-03-03T02:18:56;34.43;;;22.50;;
17372;SDS011;8803;48.116;11.590;2023-03-03T02:21:01;34.20;;;22.70;;
17372;SDS011;8803;48.116;11.590;2023-03-03T02:23:10;31.43;;;21.13;;
17372;SDS011;8803;48.116;11.590;2023-03-03T02:25:19;32.10;;;20.70;;
17372;SDS011;8803;48.116;11.590;2023-03-03T02:27:25;31.50;;;21.47;;
17372;SDS011;8803;48.116;11.590;2023-03-03T02:29:40;36.10;;;23.10;;
17372;SDS011;8803;48.116;11.590;2023-03-03T02:31:45;33.13;;;21.27;;
17372;SDS011;8803;48.116;11.590;2023-03-03T02:36:00;31.87;;;21.00;;
17372;SDS011;8803;48.116;11.590;2023-03-03T02:38:08;33.47;;;22.30;;
17372;SDS011;8803;48.116;11.590;2023-03-03T02:40:16;31.33;;;21.63;;
17372;SDS011;8803;48.116;11.590;2023-03-03T02:42:24;29.87;;;21.03;;
17372;SDS011;8803;48.116;11.590;2023-03-03T02:44:31;32.33;;;21.43;;
17372;SDS011;8803;48.116;11.590;2023-03-03T02:46:46;34.17;;;21.93;;
17372;SDS011;8803;48.116;11.590;2023-03-03T02:48:51;31.47;;;21.97;;
17372;SDS011;8803;48.116;11.590;2023-03-03T02:50:55;34.40;;;22.30;;
17372;SDS011;8803;48.116;11.590;2023-03-03T02:53:09;32.63;;;21.13;;
17372;SDS011;8803;48.116;11.590;2023-03-03T02:55:13;31.33;;;21.63;;
17372;SDS011;8803;48.116;11.590;2023-03-03T02:57:28;31.00;;;20.63;;
17372;SDS011;8803;48.116;11.590;2023-03-03T02:59:31;30.97;;;20.87;;
17372;SDS011;8803;48.116;11.590;2023-03-03T03:01:35;29.43;;;21.27;;
17372;SDS011;8803;48.116;11.590;2023-03-03T03:05:51;32.83;;;21.40;;
17372;SDS011;8803;48.116;11.590;2023-03-03T03:07:55;32.17;;;21.03;;
17372;SDS011;8803;48.116;11.590;2023-03-03T03:09:58;30.80;;;21.17;;
17372;SDS011;8803;48.116;11.590;2023-03-03T03:12:02;31.97;;;20.87;;
17372;SDS011;8803;48.116;11.590;2023-03-03T03:14:09;31.43;;;20.57;;
17372;SDS011;8803;48.116;11.590;2023-03-03T03:16:22;32.07;;;21.23;;
17372;SDS011;8803;48.116;11.590;2023-03-03T03:18:26;30.93;;;21.43;;
17372;SDS011;8803;48.116;11.590;2023-03-03T03:20:30;31.13;;;20.23;;
17372;SDS011;8803;48.116;11.590;2023-03-03T03:22:35;28.80;;;20.17;;
17372;SDS011;8803;48.116;11.590;2023-03-03T03:24:48;28.90;;;20.73;;
17372;SDS011;8803;48.116;11.590;2023-03-03T03:26:51;31.37;;;21.87;;
17372;SDS011;8803;48.116;11.590;2023-03-03T03:29:04;31.87;;;22.00;;
17372;SDS011;8803;48.116;11.590;2023-03-03T03:31:08;28.43;;;19.80;;
17372;SDS011;8803;48.116;11.590;2023-03-03T03:33:12;29.53;;;20.20;;
17372;SDS011;8803;48.116;11.590;2023-03-03T03:35:25;29.07;;;20.63;;
17372;SDS011;8803;48.116;11.590;2023-03-03T03:37:29;28.40;;;20.13;;
17372;SDS011;8803;48.116;11.590;2023-03-03T03:39:33;29.37;;;20.33;;
17372;SDS011;8803;48.116;11.590;2023-03-03T03:41:37;27.97;;;19.93;;
17372;SDS011;8803;48.116;11.590;2023-03-03T03:43:41;31.40;;;22.17;;
17372;SDS011;8803;48.116;11.590;2023-03-03T03:45:55;30.10;;;19.83;;
17372;SDS011;8803;48.116;11.590;2023-03-03T03:47:59;29.43;;;22.00;;
17372;SDS011;8803;48.116;11.590;2023-03-03T03:50:04;29.13;;;20.23;;
17372;SDS011;8803;48.116;11.590;2023-03-03T03:52:11;31.07;;;21.50;;
17372;SDS011;8803;48.116;11.590;2023-03-03T03:54:14;31.43;;;20.23;;
17372;SDS011;8803;48.116;11.590;2023-03-03T03:56:18;31.00;;;20.83;;
17372;SDS011;8803;48.116;11.590;2023-03-03T03:58:31;28.87;;;20.77;;
17372;SDS011;8803;48.116;11.590;2023-03-03T04:00:35;31.83;;;21.47;;
17372;SDS011;8803;48.116;11.590;2023-03-03T04:02:56;31.90;;;21.17;;
17372;SDS011;8803;48.116;11.590;2023-03-03T04:05:00;29.20;;;20.20;;
17372;SDS011;8803;48.116;11.590;2023-03-03T04:07:13;30.63;;;21.27;;
17372;SDS011;8803;48.116;11.590;2023-03-03T04:09:17;31.17;;;21.27;;
17372;SDS011;8803;48.116;11.590;2023-03-03T04:11:20;33.43;;;21.97;;
17372;SDS011;8803;48.116;11.590;2023-03-03T04:13:24;33.17;;;21.27;;
17372;SDS011;8803;48.116;11.590;2023-03-03T04:15:37;30.80;;;20.90;;
17372;SDS011;8803;48.116;11.590;2023-03-03T04:17:41;31.80;;;22.07;;
17372;SDS011;8803;48.116;11.590;2023-03-03T04:19:45;30.53;;;21.57;;
17372;SDS011;8803;48.116;11.590;2023-03-03T04:21:50;34.23;;;21.10;;
17372;SDS011;8803;48.116;11.590;2023-03-03T04:23:54;32.80;;;21.63;;
17372;SDS011;8803;48.116;11.590;2023-03-03T04:26:12;31.43;;;21.33;;
17372;SDS011;8803;48.116;11.590;2023-03-03T04:28:16;29.37;;;21.40;;
17372;SDS011;8803;48.116;11.590;2023-03-03T04:30:21;33.10;;;21.27;;
17372;SDS011;8803;48.116;11.590;2023-03-03T04:32:26;30.20;;;20.87;;
17372;SDS011;8803;48.116;11.590;2023-03-03T04:34:32;29.00;;;20.20;;
17372;SDS011;8803;48.116;11.590;2023-03-03T04:36:45;32.77;;;22.17;;
17372;SDS011;8803;48.116;11.590;2023-03-03T04:38:49;32.97;;;22.20;;
17372;SDS011;8803;48.116;11.590;2023-03-03T04:40:53;28.67;;;20.73;;
17372;SDS011;8803;48.116;11.590;2023-03-03T04:42:57;31.87;;;21.93;;
17372;SDS011;8803;48.116;11.590;2023-03-03T04:45:01;28.97;;;21.20;;
17372;SDS011;8803;48.116;11.590;2023-03-03T04:47:13;31.50;;;21.40;;
17372;SDS011;8803;48.116;11.590;2023-03-03T04:49:17;35.10;;;23.00;;
17372;SDS011;8803;48.116;11.590;2023-03-03T04:51:21;29.20;;;20.83;;
17372;SDS011;8803;48.116;11.590;2023-03-03T04:53:34;29.67;;;21.53;;
17372;SDS011;8803;48.116;11.590;2023-03-03T04:55:39;32.70;;;23.03;;
17372;SDS011;8803;48.116;11.590;2023-03-03T04:57:52;29.43;;;21.57;;
17372;SDS011;8803;48.116;11.590;2023-03-03T04:59:56;30.83;;;22.40;;
17372;SDS011;8803;48.116;11.590;2023-03-03T05:02:00;36.07;;;23.27;;
17372;SDS011;8803;48.116;11.590;2023-03-03T05:06:16;29.60;;;20.70;;
17372;SDS011;8803;48.116;11.590;2023-03-03T05:08:21;33.10;;;22.73;;
17372;SDS011;8803;48.116;11.590;2023-03-03T05:10:25;33.53;;;23.30;;
17372;SDS011;8803;48.116;11.590;2023-03-03T05:12:38;31.80;;;21.60;;
17372;SDS011;8803;48.116;11.590;2023-03-03T05:14:42;32.73;;;22.87;;
17372;SDS011;8803;48.116;11.590;2023-03-03T05:16:55;30.50;;;21.97;;
17372;SDS011;8803;48.116;11.590;2023-03-03T05:18:58;33.27;;;23.10;;
17372;SDS011;8803;48.116;11.590;2023-03-03T05:21:03;32.87;;;23.37;;
17372;SDS011;8803;48.116;11.590;2023-03-03T05:23:07;32.13;;;22.90;;
17372;SDS011;8803;48.116;11.590;2023-03-03T05:25:20;32.23;;;22.23;;
17372;SDS011;8803;48.116;11.590;2023-03-03T05:27:24;31.80;;;22.00;;
17372;SDS011;8803;48.116;11.590;2023-03-03T05:29:28;32.63;;;23.40;;
17372;SDS011;8803;48.116;11.590;2023-03-03T05:31:41;32.73;;;23.13;;
17372;SDS011;8803;48.116;11.590;2023-03-03T05:33:45;31.20;;;22.40;;
17372;SDS011;8803;48.116;11.590;2023-03-03T05:35:57;37.00;;;24.17;;
17372;SDS011;8803;48.116;11.590;2023-03-03T05:38:01;32.63;;;23.03;;
17372;SDS011;8803;48.116;11.590;2023-03-03T05:40:14;33.40;;;22.80;;
17372;SDS011;8803;48.116;11.590;2023-03-03T05:42:18;34.73;;;23.20;;
17372;SDS011;8803;48.116;11.590;2023-03-03T05:44:22;35.83;;;23.90;;
17372;SDS011;8803;48.116;11.590;2023-03-03T05:46:35;31.10;;;22.20;;
17372;SDS011;8803;48.116;11.590;2023-03-03T05:48:39;32.77;;;24.10;;
17372;SDS011;8803;48.116;11.590;2023-03-03T05:50:43;33.07;;;22.80;;
17372;SDS011;8803;48.116;11.590;2023-03-03T05:52:47;32.53;;;22.70;;
17372;SDS011;8803;48.116;11.590;2023-03-03T05:54:51;32.83;;;22.90;;
17372;SDS011;8803;48.116;11.590;2023-03-03T05:57:04;34.70;;;23.60;;
17372;SDS011;8803;48.116;11.590;2023-03-03T05:59:08;36.10;;;23.60;;
17372;SDS011;8803;48.116;11.590;2023-03-03T06:01:11;36.33;;;25.00;;
17372;SDS011;8803;48.116;11.590;2023-03-03T06:03:15;36.77;;;25.23;;
17372;SDS011;8803;48.116;11.590;2023-03-03T06:05:19;32.73;;;23.00;;
17372;SDS011;8803;48.116;11.590;2023-03-03T06:07:32;33.07;;;23.20;;
17372;SDS011;8803;48.116;11.590;2023-03-03T06:09:36;35.00;;;24.83;;
17372;SDS011;8803;48.116;11.590;2023-03-03T06:11:49;36.60;;;24.37;;
17372;SDS011;8803;48.116;11.590;2023-03-03T06:13:53;34.37;;;24.37;;
17372;SDS011;8803;48.116;11.590;2023-03-03T06:16:10;38.07;;;25.27;;
17372;SDS011;8803;48.116;11.590;2023-03-03T06:18:14;39.33;;;25.50;;
17372;SDS011;8803;48.116;11.590;2023-03-03T06:20:18;35.90;;;24.33;;
17372;SDS011;8803;48.116;11.590;2023-03-03T06:22:22;35.17;;;24.07;;
17372;SDS011;8803;48.116;11.590;2023-03-03T06:24:34;36.33;;;25.17;;
17372;SDS011;8803;48.116;11.590;2023-03-03T06:26:39;37.20;;;24.30;;
17372;SDS011;8803;48.116;11.590;2023-03-03T06:28:51;33.10;;;23.60;;
17372;SDS011;8803;48.116;11.590;2023-03-03T06:30:55;40.70;;;27.03;;
17372;SDS011;8803;48.116;11.590;2023-03-03T06:33:08;43.37;;;27.23;;
17372;SDS011;8803;48.116;11.590;2023-03-03T06:35:12;37.40;;;26.67;;
17372;SDS011;8803;48.116;11.590;2023-03-03T06:37:25;44.33;;;26.87;;
17372;SDS011;8803;48.116;11.590;2023-03-03T06:39:29;41.50;;;27.70;;
17372;SDS011;8803;48.116;11.590;2023-03-03T06:41:33;37.47;;;26.77;;
17372;SDS011;8803;48.116;11.590;2023-03-03T06:43:36;39.30;;;24.70;;
17372;SDS011;8803;48.116;11.590;2023-03-03T06:45:50;38.97;;;27.63;;
17372;SDS011;8803;48.116;11.590;2023-03-03T06:47:54;41.97;;;27.97;;
17372;SDS011;8803;48.116;11.590;2023-03-03T06:49:58;43.73;;;26.87;;
17372;SDS011;8803;48.116;11.590;2023-03-03T06:52:07;39.57;;;26.83;;
17372;SDS011;8803;48.116;11.590;2023-03-03T06:54:23;42.90;;;26.70;;
17372;SDS011;8803;48.116;11.590;2023-03-03T06:56:27;46.10;;;29.17;;
17372;SDS011;8803;48.116;11.590;2023-03-03T06:58:41;45.30;;;29.03;;
17372;SDS011;8803;48.116;11.590;2023-03-03T07:00:45;43.67;;;29.03;;
17372;SDS011;8803;48.116;11.590;2023-03-03T07:02:55;40.70;;;27.80;;
17372;SDS011;8803;48.116;11.590;2023-03-03T07:05:10;39.13;;;26.93;;
17372;SDS011;8803;48.116;11.590;2023-03-03T07:07:17;39.90;;;28.30;;
17372;SDS011;8803;48.116;11.590;2023-03-03T07:09:30;40.93;;;27.80;;
17372;SDS011;8803;48.116;11.590;2023-03-03T07:11:34;45.80;;;28.70;;
17372;SDS011;8803;48.116;11.590;2023-03-03T07:13:42;46.10;;;29.63;;
17372;SDS011;8803;48.116;11.590;2023-03-03T07:15:56;43.00;;;28.43;;
17372;SDS011;8803;48.116;11.590;2023-03-03T07:18:02;40.30;;;28.00;;
17372;SDS011;8803;48.116;11.590;2023-03-03T07:20:18;44.67;;;28.73;;
17372;SDS011;8803;48.116;11.590;2023-03-03T07:22:24;41.93;;;28.80;;
17372;SDS011;8803;48.116;11.590;2023-03-03T07:26:42;42.33;;;28.03;;
17372;SDS011;8803;48.116;11.590;2023-03-03T07:28:48;42.97;;;28.40;;
17372;SDS011;8803;48.116;11.590;2023-03-03T07:30:56;47.77;;;30.67;;
17372;SDS011;8803;48.116;11.590;2023-03-03T07:33:00;47.27;;;29.03;;
17372;SDS011;8803;48.116;11.590;2023-03-03T07:35:07;40.80;;;28.13;;
17372;SDS011;8803;48.116;11.590;2023-03-03T07:37:27;41.07;;;28.53;;
17372;SDS011;8803;48.116;11.590;2023-03-03T07:39:34;45.00;;;28.70;;
17372;SDS011;8803;48.116;11.590;2023-03-03T07:41:39;40.53;;;27.23;;
17372;SDS011;8803;48.116;11.590;2023-03-03T07:43:46;42.60;;;27.80;;
17372;SDS011;8803;48.116;11.590;2023-03-03T07:46:00;37.00;;;26.87;;
17372;SDS011;8803;48.116;11.590;2023-03-03T07:48:09;38.23;;;26.70;;
17372;SDS011;8803;48.116;11.590;2023-03-03T07:50:24;42.37;;;27.80;;
17372;SDS011;8803;48.116;11.590;2023-03-03T07:52:29;42.10;;;27.87;;
17372;SDS011;8803;48.116;11.590;2023-03-03T07:54:36;42.43;;;28.73;;
17372;SDS011;8803;48.116;11.590;2023-03-03T07:56:49;46.83;;;29.00;;
17372;SDS011;8803;48.116;11.590;2023-03-03T07:58:53;45.33;;;28.77;;
17372;SDS011;8803;48.116;11.590;2023-03-03T08:03:26;43.67;;;28.93;;
17372;SDS011;8803;48.116;11.590;2023-03-03T08:05:39;41.83;;;28.30;;
17372;SDS011;8803;48.116;11.590;2023-03-03T08:07:43;41.67;;;28.47;;
17372;SDS011;8803;48.116;11.590;2023-03-03T08:09:56;45.10;;;29.10;;
17372;SDS011;8803;48.116;11.590;2023-03-03T08:12:07;42.30;;;28.03;;
17372;SDS011;8803;48.116;11.590;2023-03-03T08:16:38;43.13;;;29.10;;
17372;SDS011;8803;48.116;11.590;2023-03-03T08:18:44;41.03;;;30.00;;
17372;SDS011;8803;48.116;11.590;2023-03-03T08:20:57;45.40;;;30.67;;
17372;SDS011;8803;48.116;11.590;2023-03-03T08:23:05;41.17;;;29.13;;
17372;SDS011;8803;48.116;11.590;2023-03-03T08:25:08;42.47;;;29.50;;
17372;SDS011;8803;48.116;11.590;2023-03-03T08:27:21;41.10;;;28.97;;
17372;SDS011;8803;48.116;11.590;2023-03-03T08:29:25;41.47;;;28.63;;
17372;SDS011;8803;48.116;11.590;2023-03-03T08:31:38;45.73;;;31.10;;
17372;SDS011;8803;48.116;11.590;2023-03-03T08:33:42;40.77;;;29.67;;
17372;SDS011;8803;48.116;11.590;2023-03-03T08:35:55;43.23;;;28.53;;
17372;SDS011;8803;48.116;11.590;2023-03-03T08:37:59;43.13;;;28.00;;
17372;SDS011;8803;48.116;11.590;2023-03-03T08:40:12;42.60;;;28.13;;
17372;SDS011;8803;48.116;11.590;2023-03-03T08:42:17;36.83;;;27.07;;
17372;SDS011;8803;48.116;11.590;2023-03-03T08:44:30;38.77;;;27.40;;
17372;SDS011;8803;48.116;11.590;2023-03-03T08:46:34;38.30;;;26.77;;
17372;SDS011;8803;48.116;11.590;2023-03-03T08:48:46;37.17;;;26.00;;
17372;SDS011;8803;48.116;11.590;2023-03-03T08:50:50;41.43;;;27.40;;
17372;SDS011;8803;48.116;11.590;2023-03-03T08:52:54;40.80;;;28.97;;
17372;SDS011;8803;48.116;11.590;2023-03-03T08:54:58;45.83;;;31.10;;
17372;SDS011;8803;48.116;11.590;2023-03-03T08:57:11;48.53;;;32.30;;
17372;SDS011;8803;48.116;11.590;2023-03-03T08:59:15;48.57;;;31.53;;
17372;SDS011;8803;48.116;11.590;2023-03-03T09:01:20;45.03;;;31.00;;
17372;SDS011;8803;48.116;11.590;2023-03-03T09:05:37;47.27;;;32.03;;
17372;SDS011;8803;48.116;11.590;2023-03-03T09:07:44;51.80;;;33.60;;
17372;SDS011;8803;48.116;11.590;2023-03-03T09:09:51;51.20;;;32.73;;
17372;SDS011;8803;48.116;11.590;2023-03-03T09:11:55;52.40;;;33.47;;
17372;SDS011;8803;48.116;11.590;2023-03-03T09:14:06;44.10;;;31.53;;
17372;SDS011;8803;48.116;11.590;2023-03-03T09:16:11;48.23;;;31.17;;
17372;SDS011;8803;48.116;11.590;2023-03-03T09:18:27;41.80;;;30.13;;
17372;SDS011;8803;48.116;11.590;2023-03-03T09:20:34;45.67;;;32.17;;
17372;SDS011;8803;48.116;11.590;2023-03-03T09:22:40;45.47;;;30.90;;
17372;SDS011;8803;48.116;11.590;2023-03-03T09:24:45;47.17;;;30.07;;
17372;SDS011;8803;48.116;11.590;2023-03-03T09:26:58;40.03;;;28.40;;
17372;SDS011;8803;48.116;11.590;2023-03-03T09:29:17;43.40;;;30.03;;
17372;SDS011;8803;48.116;11.590;2023-03-03T09:31:33;45.67;;;30.63;;
17372;SDS011;8803;48.116;11.590;2023-03-03T09:33:40;43.63;;;29.93;;
17372;SDS011;8803;48.116;11.590;2023-03-03T09:35:55;45.50;;;29.20;;
17372;SDS011;8803;48.116;11.590;2023-03-03T09:38:10;48.00;;;31.23;;
17372;SDS011;8803;48.116;11.590;2023-03-03T09:40:30;49.67;;;34.37;;
17372;SDS011;8803;48.116;11.590;2023-03-03T09:42:46;46.67;;;31.43;;
17372;SDS011;8803;48.116;11.590;2023-03-03T09:45:03;45.03;;;32.40;;
17372;SDS011;8803;48.116;11.590;2023-03-03T09:47:26;46.77;;;32.63;;
17372;SDS011;8803;48.116;11.590;2023-03-03T09:49:34;43.57;;;30.87;;
17372;SDS011;8803;48.116;11.590;2023-03-03T09:51:42;48.37;;;31.43;;
17372;SDS011;8803;48.116;11.590;2023-03-03T09:54:04;48.90;;;31.67;;
17372;SDS011;8803;48.116;11.590;2023-03-03T09:56:30;49.50;;;32.00;;
17372;SDS011;8803;48.116;11.590;2023-03-03T10:00:54;45.67;;;31.33;;
17372;SDS011;8803;48.116;11.590;2023-03-03T10:03:05;47.30;;;31.73;;
17372;SDS011;8803;48.116;11.590;2023-03-03T10:05:16;43.30;;;29.47;;
17372;SDS011;8803;48.116;11.590;2023-03-03T10:07:38;48.93;;;31.97;;
17372;SDS011;8803;48.116;11.590;2023-03-03T10:12:13;46.23;;;31.20;;
17372;SDS011;8803;48.116;11.590;2023-03-03T10:14:29;48.57;;;32.30;;
17372;SDS011;8803;48.116;11.590;2023-03-03T10:16:55;45.53;;;30.87;;
17372;SDS011;8803;48.116;11.590;2023-03-03T10:19:06;45.17;;;31.23;;
17372;SDS011;8803;48.116;11.590;2023-03-03T10:21:22;49.80;;;31.73;;
17372;SDS011;8803;48.116;11.590;2023-03-03T10:23:36;45.40;;;30.93;;
17372;SDS011;8803;48.116;11.590;2023-03-03T10:25:55;48.60;;;30.90;;
17372;SDS011;8803;48.116;11.590;2023-03-03T10:28:15;47.57;;;33.17;;
17372;SDS011;8803;48.116;11.590;2023-03-03T10:30:33;45.53;;;31.63;;
17372;SDS011;8803;48.116;11.590;2023-03-03T10:32:44;44.53;;;30.93;;
17372;SDS011;8803;48.116;11.590;2023-03-03T10:35:01;43.83;;;31.00;;
17372;SDS011;8803;48.116;11.590;2023-03-03T10:37:29;40.23;;;30.37;;
17372;SDS011;8803;48.116;11.590;2023-03-03T10:39:50;46.33;;;31.50;;
17372;SDS011;8803;48.116;11.590;2023-03-03T10:42:18;41.57;;;30.63;;
17372;SDS011;8803;48.116;11.590;2023-03-03T10:44:28;39.80;;;28.70;;
17372;SDS011;8803;48.116;11.590;2023-03-03T10:48:56;39.67;;;29.30;;
17372;SDS011;8803;48.116;11.590;2023-03-03T10:51:18;39.03;;;28.73;;
17372;SDS011;8803;48.116;11.590;2023-03-03T10:53:28;46.53;;;31.23;;
17372;SDS011;8803;48.116;11.590;2023-03-03T10:55:44;45.37;;;30.77;;
17372;SDS011;8803;48.116;11.590;2023-03-03T10:57:54;41.97;;;30.83;;
17372;SDS011;8803;48.116;11.590;2023-03-03T11:00:12;40.30;;;28.87;;
17372;SDS011;8803;48.116;11.590;2023-03-03T11:02:21;43.73;;;31.27;;
17372;SDS011;8803;48.116;11.590;2023-03-03T11:07:07;43.80;;;30.70;;
17372;SDS011;8803;48.116;11.590;2023-03-03T11:09:18;47.87;;;32.07;;
17372;SDS011;8803;48.116;11.590;2023-03-03T11:11:34;48.40;;;33.67;;
17372;SDS011;8803;48.116;11.590;2023-03-03T11:13:43;45.53;;;31.73;;
17372;SDS011;8803;48.116;11.590;2023-03-03T11:16:02;45.40;;;32.83;;
17372;SDS011;8803;48.116;11.590;2023-03-03T11:18:20;57.07;;;37.40;;
17372;SDS011;8803;48.116;11.590;2023-03-03T11:20:34;50.03;;;33.53;;
17372;SDS011;8803;48.116;11.590;2023-03-03T11:22:51;48.27;;;33.40;;
17372;SDS011;8803;48.116;11.590;2023-03-03T11:24:59;46.30;;;32.27;;
17372;SDS011;8803;48.116;11.590;2023-03-03T11:27:25;46.73;;;30.30;;
17372;SDS011;8803;48.116;11.590;2023-03-03T11:29:47;47.20;;;32.93;;
17372;SDS011;8803;48.116;11.590;2023-03-03T11:32:15;45.00;;;30.77;;
17372;SDS011;8803;48.116;11.590;2023-03-03T11:34:20;43.50;;;30.33;;
17372;SDS011;8803;48.116;11.590;2023-03-03T11:36:38;46.87;;;33.13;;
17372;SDS011;8803;48.116;11.590;2023-03-03T11:38:47;50.43;;;33.70;;
17372;SDS011;8803;48.116;11.590;2023-03-03T11:40:55;44.03;;;31.23;;
17372;SDS011;8803;48.116;11.590;2023-03-03T11:43:03;44.57;;;30.73;;
17372;SDS011;8803;48.116;11.590;2023-03-03T11:45:11;42.23;;;31.13;;
17372;SDS011;8803;48.116;11.590;2023-03-03T11:47:26;51.10;;;33.07;;
17372;SDS011;8803;48.116;11.590;2023-03-03T11:49:33;43.40;;;31.20;;
17372;SDS011;8803;48.116;11.590;2023-03-03T11:51:48;44.40;;;32.23;;
17372;SDS011;8803;48.116;11.590;2023-03-03T11:53:57;47.80;;;31.37;;
17372;SDS011;8803;48.116;11.590;2023-03-03T11:56:16;42.90;;;31.13;;
17372;SDS011;8803;48.116;11.590;2023-03-03T11:58:23;41.47;;;29.43;;
17372;SDS011;8803;48.116;11.590;2023-03-03T12:00:29;42.73;;;29.87;;
17372;SDS011;8803;48.116;11.590;2023-03-03T12:02:50;42.33;;;30.20;;
17372;SDS011;8803;48.116;11.590;2023-03-03T12:04:59;47.07;;;32.77;;
17372;SDS011;8803;48.116;11.590;2023-03-03T12:07:12;46.40;;;31.83;;
17372;SDS011;8803;48.116;11.590;2023-03-03T12:09:25;47.00;;;33.13;;
17372;SDS011;8803;48.116;11.590;2023-03-03T12:11:45;43.40;;;31.07;;
17372;SDS011;8803;48.116;11.590;2023-03-03T12:13:53;47.67;;;32.20;;
17372;SDS011;8803;48.116;11.590;2023-03-03T12:16:11;48.07;;;33.13;;
17372;SDS011;8803;48.116;11.590;2023-03-03T12:18:20;43.70;;;31.43;;
17372;SDS011;8803;48.116;11.590;2023-03-03T12:20:31;43.37;;;32.07;;
17372;SDS011;8803;48.116;11.590;2023-03-03T12:22:38;46.73;;;32.47;;
17372;SDS011;8803;48.116;11.590;2023-03-03T12:29:41;46.73;;;31.40;;
17372;SDS011;8803;48.116;11.590;2023-03-03T12:31:49;48.03;;;32.17;;
17372;SDS011;8803;48.116;11.590;2023-03-03T12:34:04;50.70;;;35.83;;
17372;SDS011;8803;48.116;11.590;2023-03-03T12:38:27;48.93;;;34.57;;
17372;SDS011;8803;48.116;11.590;2023-03-03T12:40:37;45.17;;;32.00;;
17372;SDS011;8803;48.116;11.590;2023-03-03T12:42:46;45.77;;;31.93;;
17372;SDS011;8803;48.116;11.590;2023-03-03T12:45:08;46.97;;;32.77;;
17372;SDS011;8803;48.116;11.590;2023-03-03T12:47:26;43.13;;;30.43;;
17372;SDS011;8803;48.116;11.590;2023-03-03T12:49:32;43.00;;;31.73;;
17372;SDS011;8803;48.116;11.590;2023-03-03T12:51:52;50.10;;;35.43;;
17372;SDS011;8803;48.116;11.590;2023-03-03T12:54:13;47.57;;;32.57;;
17372;SDS011;8803;48.116;11.590;2023-03-03T12:56:25;42.57;;;30.50;;
17372;SDS011;8803;48.116;11.590;2023-03-03T12:58:42;45.03;;;31.37;;
17372;SDS011;8803;48.116;11.590;2023-03-03T13:00:50;48.27;;;34.37;;
17372;SDS011;8803;48.116;11.590;2023-03-03T13:03:06;39.77;;;30.20;;
17372;SDS011;8803;48.116;11.590;2023-03-03T13:05:18;43.87;;;31.40;;
17372;SDS011;8803;48.116;11.590;2023-03-03T13:07:25;46.63;;;33.13;;
17372;SDS011;8803;48.116;11.590;2023-03-03T13:09:33;47.80;;;31.40;;
17372;SDS011;8803;48.116;11.590;2023-03-03T13:11:54;45.83;;;31.80;;